sensor_id;sensor_type;location;lat;lon;timestamp;temperature;humidity
32614;DHT22;19031;51.400;6.770;2023-11-21T00:02:22;7.60;99.90
32614;DHT22;19031;51.400;6.770;2023-11-21T00:04:48;7.60;99.90
32614;DHT22;19031;51.400;6.770;2023-11-21T00:07:14;7.60;99.90
32614;DHT22;19031;51.400;6.770;2023-11-21T00:09:41;7.70;99.90
32614;DHT22;19031;51.400;6.770;2023-11-21T00:12:10;7.70;99.90
32614;DHT22;19031;51.400;6.770;2023-11-21T00:14:36;7.70;99.90
32614;DHT22;19031;51.400;6.770;2023-11-21T00:17:04;7.80;99.90
32614;DHT22;19031;51.400;6.770;2023-11-21T00:19:30;7.90;99.90
32614;DHT22;19031;51.400;6.770;2023-11-21T00:21:56;7.80;99.90
32614;DHT22;19031;51.400;6.770;2023-11-21T00:24:24;8.00;99.90
32614;DHT22;19031;51.400;6.770;2023-11-21T00:26:50;7.80;99.90
32614;DHT22;19031;51.400;6.770;2023-11-21T00:29:16;8.00;99.90
32614;DHT22;19031;51.400;6.770;2023-11-21T00:31:43;8.00;99.90
32614;DHT22;19031;51.400;6.770;2023-11-21T00:34:09;7.90;99.90
32614;DHT22;19031;51.400;6.770;2023-11-21T00:36:35;7.90;99.90
32614;DHT22;19031;51.400;6.770;2023-11-21T00:39:00;7.90;99.90
32614;DHT22;19031;51.400;6.770;2023-11-21T00:41:29;7.90;99.90
32614;DHT22;19031;51.400;6.770;2023-11-21T00:43:54;7.90;99.90
32614;DHT22;19031;51.400;6.770;2023-11-21T00:46:20;7.80;99.90
32614;DHT22;19031;51.400;6.770;2023-11-21T00:48:46;7.70;99.90
32614;DHT22;19031;51.400;6.770;2023-11-21T00:51:12;7.70;99.90
32614;DHT22;19031;51.400;6.770;2023-11-21T00:53:37;7.70;99.90
32614;DHT22;19031;51.400;6.770;2023-11-21T00:56:03;7.70;99.90
32614;DHT22;19031;51.400;6.770;2023-11-21T00:58:29;7.60;99.90
32614;DHT22;19031;51.400;6.770;2023-11-21T01:00:55;7.60;99.90
32614;DHT22;19031;51.400;6.770;2023-11-21T01:03:21;7.50;99.90
32614;DHT22;19031;51.400;6.770;2023-11-21T01:05:47;7.30;99.90
32614;DHT22;19031;51.400;6.770;2023-11-21T01:08:15;7.30;99.90
32614;DHT22;19031;51.400;6.770;2023-11-21T01:10:40;7.30;99.90
32614;DHT22;19031;51.400;6.770;2023-11-21T01:13:06;7.20;99.90
32614;DHT22;19031;51.400;6.770;2023-11-21T01:15:33;7.10;99.90
32614;DHT22;19031;51.400;6.770;2023-11-21T01:17:59;7.20;99.90
32614;DHT22;19031;51.400;6.770;2023-11-21T01:20:24;7.00;99.90
32614;DHT22;19031;51.400;6.770;2023-11-21T01:22:50;7.10;99.90
32614;DHT22;19031;51.400;6.770;2023-11-21T01:25:16;7.10;99.90
32614;DHT22;19031;51.400;6.770;2023-11-21T01:27:42;7.10;99.90
32614;DHT22;19031;51.400;6.770;2023-11-21T01:30:08;7.10;99.90
32614;DHT22;19031;51.400;6.770;2023-11-21T01:32:36;7.10;99.90
32614;DHT22;19031;51.400;6.770;2023-11-21T01:35:02;7.10;99.90
32614;DHT22;19031;51.400;6.770;2023-11-21T01:37:27;7.10;99.90
32614;DHT22;19031;51.400;6.770;2023-11-21T01:39:54;7.10;99.90
32614;DHT22;19031;51.400;6.770;2023-11-21T01:42:22;7.20;99.90
32614;DHT22;19031;51.400;6.770;2023-11-21T01:44:48;7.30;99.90
32614;DHT22;19031;51.400;6.770;2023-11-21T01:47:14;7.30;99.90
32614;DHT22;19031;51.400;6.770;2023-11-21T01:49:44;7.30;99.90
32614;DHT22;19031;51.400;6.770;2023-11-21T01:52:10;7.30;99.90
32614;DHT22;19031;51.400;6.770;2023-11-21T01:54:37;7.30;99.90
32614;DHT22;19031;51.400;6.770;2023-11-21T01:57:04;7.40;99.90
32614;DHT22;19031;51.400;6.770;2023-11-21T01:59:36;7.40;99.90
32614;DHT22;19031;51.400;6.770;2023-11-21T02:02:03;7.40;99.90
32614;DHT22;19031;51.400;6.770;2023-11-21T02:04:31;7.50;99.90
32614;DHT22;19031;51.400;6.770;2023-11-21T02:06:57;7.50;99.90
32614;DHT22;19031;51.400;6.770;2023-11-21T02:09:29;7.50;99.90
32614;DHT22;19031;51.400;6.770;2023-11-21T02:11:56;7.60;99.90
32614;DHT22;19031;51.400;6.770;2023-11-21T02:14:25;7.60;99.90
32614;DHT22;19031;51.400;6.770;2023-11-21T02:16:52;7.60;99.90
32614;DHT22;19031;51.400;6.770;2023-11-21T02:19:20;7.60;99.90
32614;DHT22;19031;51.400;6.770;2023-11-21T02:21:49;7.70;99.90
32614;DHT22;19031;51.400;6.770;2023-11-21T02:24:15;7.70;99.90
32614;DHT22;19031;51.400;6.770;2023-11-21T02:26:43;7.70;99.90
32614;DHT22;19031;51.400;6.770;2023-11-21T02:29:08;7.80;99.90
32614;DHT22;19031;51.400;6.770;2023-11-21T02:31:37;7.80;99.90
32614;DHT22;19031;51.400;6.770;2023-11-21T02:34:11;7.80;99.90
32614;DHT22;19031;51.400;6.770;2023-11-21T02:36:38;7.80;99.90
32614;DHT22;19031;51.400;6.770;2023-11-21T02:39:04;7.80;99.90
32614;DHT22;19031;51.400;6.770;2023-11-21T02:41:30;7.80;99.90
32614;DHT22;19031;51.400;6.770;2023-11-21T02:43:55;7.90;99.90
32614;DHT22;19031;51.400;6.770;2023-11-21T02:46:21;7.80;99.90
32614;DHT22;19031;51.400;6.770;2023-11-21T02:48:47;7.80;99.90
32614;DHT22;19031;51.400;6.770;2023-11-21T02:51:13;7.80;99.90
32614;DHT22;19031;51.400;6.770;2023-11-21T02:53:38;7.90;99.90
32614;DHT22;19031;51.400;6.770;2023-11-21T02:56:04;7.90;99.90
32614;DHT22;19031;51.400;6.770;2023-11-21T02:58:30;7.90;99.90
32614;DHT22;19031;51.400;6.770;2023-11-21T03:00:55;7.90;99.90
32614;DHT22;19031;51.400;6.770;2023-11-21T03:03:21;7.90;99.90
32614;DHT22;19031;51.400;6.770;2023-11-21T03:05:49;7.90;99.90
32614;DHT22;19031;51.400;6.770;2023-11-21T03:08:14;7.90;99.90
32614;DHT22;19031;51.400;6.770;2023-11-21T03:10:40;7.80;99.90
32614;DHT22;19031;51.400;6.770;2023-11-21T03:13:06;7.90;99.90
32614;DHT22;19031;51.400;6.770;2023-11-21T03:15:31;7.90;99.90
32614;DHT22;19031;51.400;6.770;2023-11-21T03:17:58;7.90;99.90
32614;DHT22;19031;51.400;6.770;2023-11-21T03:20:23;7.90;99.90
32614;DHT22;19031;51.400;6.770;2023-11-21T03:22:49;7.90;99.90
32614;DHT22;19031;51.400;6.770;2023-11-21T03:25:15;7.90;99.90
32614;DHT22;19031;51.400;6.770;2023-11-21T03:27:42;8.00;99.90
32614;DHT22;19031;51.400;6.770;2023-11-21T03:30:10;8.00;99.90
32614;DHT22;19031;51.400;6.770;2023-11-21T03:32:36;8.00;99.90
32614;DHT22;19031;51.400;6.770;2023-11-21T03:35:02;8.00;99.90
32614;DHT22;19031;51.400;6.770;2023-11-21T03:37:29;8.00;99.90
32614;DHT22;19031;51.400;6.770;2023-11-21T03:39:55;8.10;99.90
32614;DHT22;19031;51.400;6.770;2023-11-21T03:42:21;8.10;99.90
32614;DHT22;19031;51.400;6.770;2023-11-21T03:44:47;8.00;99.90
32614;DHT22;19031;51.400;6.770;2023-11-21T03:47:12;8.10;99.90
32614;DHT22;19031;51.400;6.770;2023-11-21T03:49:39;8.10;99.90
32614;DHT22;19031;51.400;6.770;2023-11-21T03:52:05;8.10;99.90
32614;DHT22;19031;51.400;6.770;2023-11-21T03:54:30;8.10;99.90
32614;DHT22;19031;51.400;6.770;2023-11-21T03:56:56;8.20;99.90
32614;DHT22;19031;51.400;6.770;2023-11-21T03:59:21;8.20;99.90
32614;DHT22;19031;51.400;6.770;2023-11-21T04:01:50;8.20;99.90
32614;DHT22;19031;51.400;6.770;2023-11-21T04:04:15;8.20;99.90
32614;DHT22;19031;51.400;6.770;2023-11-21T04:06:41;8.20;99.90
32614;DHT22;19031;51.400;6.770;2023-11-21T04:09:07;8.20;99.90
32614;DHT22;19031;51.400;6.770;2023-11-21T04:11:32;8.20;99.90
32614;DHT22;19031;51.400;6.770;2023-11-21T04:13:59;8.20;99.90
32614;DHT22;19031;51.400;6.770;2023-11-21T04:16:24;8.20;99.90
32614;DHT22;19031;51.400;6.770;2023-11-21T04:18:50;8.20;99.90
32614;DHT22;19031;51.400;6.770;2023-11-21T04:21:15;8.20;99.90
32614;DHT22;19031;51.400;6.770;2023-11-21T04:23:42;8.20;99.90
32614;DHT22;19031;51.400;6.770;2023-11-21T04:26:07;8.30;99.90
32614;DHT22;19031;51.400;6.770;2023-11-21T04:28:33;8.30;99.90
32614;DHT22;19031;51.400;6.770;2023-11-21T04:31:00;8.30;99.90
32614;DHT22;19031;51.400;6.770;2023-11-21T04:33:25;8.20;99.90
32614;DHT22;19031;51.400;6.770;2023-11-21T04:35:51;8.30;99.90
32614;DHT22;19031;51.400;6.770;2023-11-21T04:38:17;8.30;99.90
32614;DHT22;19031;51.400;6.770;2023-11-21T04:40:42;8.30;99.90
32614;DHT22;19031;51.400;6.770;2023-11-21T04:43:08;8.30;99.90
32614;DHT22;19031;51.400;6.770;2023-11-21T04:45:34;8.30;99.90
32614;DHT22;19031;51.400;6.770;2023-11-21T04:48:00;8.20;99.90
32614;DHT22;19031;51.400;6.770;2023-11-21T04:50:25;8.30;99.90
32614;DHT22;19031;51.400;6.770;2023-11-21T04:52:52;8.30;99.90
32614;DHT22;19031;51.400;6.770;2023-11-21T04:55:18;8.30;99.90
32614;DHT22;19031;51.400;6.770;2023-11-21T04:57:44;8.30;99.90
32614;DHT22;19031;51.400;6.770;2023-11-21T05:00:11;8.20;99.90
32614;DHT22;19031;51.400;6.770;2023-11-21T05:02:38;8.30;99.90
32614;DHT22;19031;51.400;6.770;2023-11-21T05:05:03;8.20;99.90
32614;DHT22;19031;51.400;6.770;2023-11-21T05:07:32;8.20;99.90
32614;DHT22;19031;51.400;6.770;2023-11-21T05:09:57;8.20;99.90
32614;DHT22;19031;51.400;6.770;2023-11-21T05:12:24;8.20;99.90
32614;DHT22;19031;51.400;6.770;2023-11-21T05:14:50;8.30;99.90
32614;DHT22;19031;51.400;6.770;2023-11-21T05:17:16;8.30;99.90
32614;DHT22;19031;51.400;6.770;2023-11-21T05:19:41;8.30;99.90
32614;DHT22;19031;51.400;6.770;2023-11-21T05:22:08;8.20;99.90
32614;DHT22;19031;51.400;6.770;2023-11-21T05:24:34;8.30;99.90
32614;DHT22;19031;51.400;6.770;2023-11-21T05:27:00;8.30;99.90
32614;DHT22;19031;51.400;6.770;2023-11-21T05:29:26;8.30;99.90
32614;DHT22;19031;51.400;6.770;2023-11-21T05:31:51;8.30;99.90
32614;DHT22;19031;51.400;6.770;2023-11-21T05:34:18;8.20;99.90
32614;DHT22;19031;51.400;6.770;2023-11-21T05:36:44;8.20;99.90
32614;DHT22;19031;51.400;6.770;2023-11-21T05:39:11;8.10;99.90
32614;DHT22;19031;51.400;6.770;2023-11-21T05:41:37;8.20;99.90
32614;DHT22;19031;51.400;6.770;2023-11-21T05:44:02;8.20;99.90
32614;DHT22;19031;51.400;6.770;2023-11-21T05:46:28;8.20;99.90
32614;DHT22;19031;51.400;6.770;2023-11-21T05:48:54;8.20;99.90
32614;DHT22;19031;51.400;6.770;2023-11-21T05:51:20;8.20;99.90
32614;DHT22;19031;51.400;6.770;2023-11-21T05:53:45;8.30;99.90
32614;DHT22;19031;51.400;6.770;2023-11-21T05:56:12;8.20;99.90
32614;DHT22;19031;51.400;6.770;2023-11-21T05:58:39;8.30;99.90
32614;DHT22;19031;51.400;6.770;2023-11-21T06:01:06;8.20;99.90
32614;DHT22;19031;51.400;6.770;2023-11-21T06:03:34;8.20;99.90
32614;DHT22;19031;51.400;6.770;2023-11-21T06:06:00;8.20;99.90
32614;DHT22;19031;51.400;6.770;2023-11-21T06:08:26;8.90;99.90
32614;DHT22;19031;51.400;6.770;2023-11-21T06:10:52;8.20;99.90
32614;DHT22;19031;51.400;6.770;2023-11-21T06:13:17;8.30;99.90
32614;DHT22;19031;51.400;6.770;2023-11-21T06:15:50;8.40;99.90
32614;DHT22;19031;51.400;6.770;2023-11-21T06:18:15;8.40;99.90
32614;DHT22;19031;51.400;6.770;2023-11-21T06:20:41;8.30;99.90
32614;DHT22;19031;51.400;6.770;2023-11-21T06:23:06;8.40;99.90
32614;DHT22;19031;51.400;6.770;2023-11-21T06:25:32;8.30;99.90
32614;DHT22;19031;51.400;6.770;2023-11-21T06:28:01;8.40;99.90
32614;DHT22;19031;51.400;6.770;2023-11-21T06:30:27;8.30;99.90
32614;DHT22;19031;51.400;6.770;2023-11-21T06:32:54;8.40;99.90
32614;DHT22;19031;51.400;6.770;2023-11-21T06:35:20;8.40;99.90
32614;DHT22;19031;51.400;6.770;2023-11-21T06:37:46;8.50;99.90
32614;DHT22;19031;51.400;6.770;2023-11-21T06:40:13;8.50;99.90
32614;DHT22;19031;51.400;6.770;2023-11-21T06:42:43;8.50;99.90
32614;DHT22;19031;51.400;6.770;2023-11-21T06:45:10;8.40;99.90
32614;DHT22;19031;51.400;6.770;2023-11-21T06:47:37;8.50;99.90
32614;DHT22;19031;51.400;6.770;2023-11-21T06:50:03;8.50;99.90
32614;DHT22;19031;51.400;6.770;2023-11-21T06:52:29;8.50;99.90
32614;DHT22;19031;51.400;6.770;2023-11-21T06:54:55;8.60;99.90
32614;DHT22;19031;51.400;6.770;2023-11-21T06:57:23;8.60;99.90
32614;DHT22;19031;51.400;6.770;2023-11-21T06:59:48;8.60;99.90
32614;DHT22;19031;51.400;6.770;2023-11-21T07:02:16;8.80;99.90
32614;DHT22;19031;51.400;6.770;2023-11-21T07:04:46;8.70;99.90
32614;DHT22;19031;51.400;6.770;2023-11-21T07:07:12;8.80;99.90
32614;DHT22;19031;51.400;6.770;2023-11-21T07:09:38;8.70;99.90
32614;DHT22;19031;51.400;6.770;2023-11-21T07:12:04;8.80;99.90
32614;DHT22;19031;51.400;6.770;2023-11-21T07:14:33;8.80;99.90
32614;DHT22;19031;51.400;6.770;2023-11-21T07:16:59;8.90;99.90
32614;DHT22;19031;51.400;6.770;2023-11-21T07:19:24;8.80;99.90
32614;DHT22;19031;51.400;6.770;2023-11-21T07:21:50;8.80;99.90
32614;DHT22;19031;51.400;6.770;2023-11-21T07:24:16;8.80;99.90
32614;DHT22;19031;51.400;6.770;2023-11-21T07:26:42;8.80;99.90
32614;DHT22;19031;51.400;6.770;2023-11-21T07:29:08;8.90;99.90
32614;DHT22;19031;51.400;6.770;2023-11-21T07:31:34;8.90;99.90
32614;DHT22;19031;51.400;6.770;2023-11-21T07:34:00;8.90;99.90
32614;DHT22;19031;51.400;6.770;2023-11-21T07:36:26;8.90;99.90
32614;DHT22;19031;51.400;6.770;2023-11-21T07:38:52;9.00;99.90
32614;DHT22;19031;51.400;6.770;2023-11-21T07:41:18;9.00;99.90
32614;DHT22;19031;51.400;6.770;2023-11-21T07:43:45;9.10;99.90
32614;DHT22;19031;51.400;6.770;2023-11-21T07:46:11;9.00;99.90
32614;DHT22;19031;51.400;6.770;2023-11-21T07:48:40;9.20;99.90
32614;DHT22;19031;51.400;6.770;2023-11-21T07:51:07;9.20;99.90
32614;DHT22;19031;51.400;6.770;2023-11-21T07:53:36;9.10;99.90
32614;DHT22;19031;51.400;6.770;2023-11-21T07:56:03;9.20;99.90
32614;DHT22;19031;51.400;6.770;2023-11-21T07:58:29;9.20;99.90
32614;DHT22;19031;51.400;6.770;2023-11-21T08:00:55;9.20;99.90
32614;DHT22;19031;51.400;6.770;2023-11-21T08:03:20;9.30;99.90
32614;DHT22;19031;51.400;6.770;2023-11-21T08:05:46;9.20;99.90
32614;DHT22;19031;51.400;6.770;2023-11-21T08:08:12;9.30;99.90
32614;DHT22;19031;51.400;6.770;2023-11-21T08:10:38;9.40;99.90
32614;DHT22;19031;51.400;6.770;2023-11-21T08:13:04;9.40;99.90
32614;DHT22;19031;51.400;6.770;2023-11-21T08:15:30;9.60;99.90
32614;DHT22;19031;51.400;6.770;2023-11-21T08:17:59;9.40;99.90
32614;DHT22;19031;51.400;6.770;2023-11-21T08:20:25;9.50;99.90
32614;DHT22;19031;51.400;6.770;2023-11-21T08:22:51;9.40;99.90
32614;DHT22;19031;51.400;6.770;2023-11-21T08:25:18;9.40;99.90
32614;DHT22;19031;51.400;6.770;2023-11-21T08:27:45;9.40;99.90
32614;DHT22;19031;51.400;6.770;2023-11-21T08:30:11;9.40;99.90
32614;DHT22;19031;51.400;6.770;2023-11-21T08:32:38;9.40;99.90
32614;DHT22;19031;51.400;6.770;2023-11-21T08:35:03;9.50;99.90
32614;DHT22;19031;51.400;6.770;2023-11-21T08:37:30;9.40;99.90
32614;DHT22;19031;51.400;6.770;2023-11-21T08:39:58;9.50;99.90
32614;DHT22;19031;51.400;6.770;2023-11-21T08:42:27;9.70;99.90
32614;DHT22;19031;51.400;6.770;2023-11-21T08:44:55;9.70;99.90
32614;DHT22;19031;51.400;6.770;2023-11-21T08:47:23;9.80;99.90
32614;DHT22;19031;51.400;6.770;2023-11-21T08:49:50;9.80;99.90
32614;DHT22;19031;51.400;6.770;2023-11-21T08:52:18;9.90;99.90
32614;DHT22;19031;51.400;6.770;2023-11-21T08:54:46;9.80;99.90
32614;DHT22;19031;51.400;6.770;2023-11-21T08:57:11;9.90;99.90
32614;DHT22;19031;51.400;6.770;2023-11-21T08:59:37;10.00;99.90
32614;DHT22;19031;51.400;6.770;2023-11-21T09:02:03;9.90;99.90
32614;DHT22;19031;51.400;6.770;2023-11-21T09:04:28;10.00;99.90
32614;DHT22;19031;51.400;6.770;2023-11-21T09:06:54;10.00;99.90
32614;DHT22;19031;51.400;6.770;2023-11-21T09:09:19;10.00;99.90
32614;DHT22;19031;51.400;6.770;2023-11-21T09:11:45;10.00;99.90
32614;DHT22;19031;51.400;6.770;2023-11-21T09:14:11;10.10;99.90
32614;DHT22;19031;51.400;6.770;2023-11-21T09:16:40;10.00;99.90
32614;DHT22;19031;51.400;6.770;2023-11-21T09:19:06;10.00;99.90
32614;DHT22;19031;51.400;6.770;2023-11-21T09:21:32;10.00;99.90
32614;DHT22;19031;51.400;6.770;2023-11-21T09:23:59;10.10;99.90
32614;DHT22;19031;51.400;6.770;2023-11-21T09:26:25;10.20;99.90
32614;DHT22;19031;51.400;6.770;2023-11-21T09:28:51;10.10;99.90
32614;DHT22;19031;51.400;6.770;2023-11-21T09:31:18;10.10;99.90
32614;DHT22;19031;51.400;6.770;2023-11-21T09:33:48;10.00;99.90
32614;DHT22;19031;51.400;6.770;2023-11-21T09:36:14;10.10;99.90
32614;DHT22;19031;51.400;6.770;2023-11-21T09:38:42;10.20;99.90
32614;DHT22;19031;51.400;6.770;2023-11-21T09:41:23;10.20;99.90
32614;DHT22;19031;51.400;6.770;2023-11-21T09:43:55;10.30;99.90
32614;DHT22;19031;51.400;6.770;2023-11-21T09:46:23;10.40;99.90
32614;DHT22;19031;51.400;6.770;2023-11-21T09:48:51;10.40;99.90
32614;DHT22;19031;51.400;6.770;2023-11-21T09:51:20;10.50;99.90
32614;DHT22;19031;51.400;6.770;2023-11-21T09:53:50;10.40;99.90
32614;DHT22;19031;51.400;6.770;2023-11-21T09:56:18;10.50;99.90
32614;DHT22;19031;51.400;6.770;2023-11-21T09:58:51;10.50;99.90
32614;DHT22;19031;51.400;6.770;2023-11-21T10:01:18;10.50;99.90
32614;DHT22;19031;51.400;6.770;2023-11-21T10:03:44;10.30;99.90
32614;DHT22;19031;51.400;6.770;2023-11-21T10:06:10;10.30;99.90
32614;DHT22;19031;51.400;6.770;2023-11-21T10:08:37;10.30;99.90
32614;DHT22;19031;51.400;6.770;2023-11-21T10:11:05;10.20;99.90
32614;DHT22;19031;51.400;6.770;2023-11-21T10:13:32;10.10;99.90
32614;DHT22;19031;51.400;6.770;2023-11-21T10:15:58;10.20;99.90
32614;DHT22;19031;51.400;6.770;2023-11-21T10:18:26;10.40;99.90
32614;DHT22;19031;51.400;6.770;2023-11-21T10:20:53;10.50;99.90
32614;DHT22;19031;51.400;6.770;2023-11-21T10:23:20;10.50;99.90
32614;DHT22;19031;51.400;6.770;2023-11-21T10:25:47;10.60;99.90
32614;DHT22;19031;51.400;6.770;2023-11-21T10:28:14;10.60;99.90
32614;DHT22;19031;51.400;6.770;2023-11-21T10:30:41;10.80;99.90
32614;DHT22;19031;51.400;6.770;2023-11-21T10:33:07;10.70;99.90
32614;DHT22;19031;51.400;6.770;2023-11-21T10:35:49;10.70;99.90
32614;DHT22;19031;51.400;6.770;2023-11-21T10:38:21;10.70;99.90
32614;DHT22;19031;51.400;6.770;2023-11-21T10:40:49;10.80;99.90
32614;DHT22;19031;51.400;6.770;2023-11-21T10:43:15;10.90;99.90
32614;DHT22;19031;51.400;6.770;2023-11-21T10:45:41;10.90;99.90
32614;DHT22;19031;51.400;6.770;2023-11-21T10:48:13;10.90;99.90
32614;DHT22;19031;51.400;6.770;2023-11-21T10:50:45;11.00;99.90
32614;DHT22;19031;51.400;6.770;2023-11-21T10:53:11;11.00;99.90
32614;DHT22;19031;51.400;6.770;2023-11-21T10:55:38;11.00;99.90
32614;DHT22;19031;51.400;6.770;2023-11-21T10:58:05;11.00;99.90
32614;DHT22;19031;51.400;6.770;2023-11-21T11:00:32;11.10;99.90
32614;DHT22;19031;51.400;6.770;2023-11-21T11:02:58;11.20;99.90
32614;DHT22;19031;51.400;6.770;2023-11-21T11:05:26;11.30;99.90
32614;DHT22;19031;51.400;6.770;2023-11-21T11:08:04;11.30;99.90
32614;DHT22;19031;51.400;6.770;2023-11-21T11:10:29;11.40;99.90
32614;DHT22;19031;51.400;6.770;2023-11-21T11:12:57;11.60;99.90
32614;DHT22;19031;51.400;6.770;2023-11-21T11:15:24;11.60;99.90
32614;DHT22;19031;51.400;6.770;2023-11-21T11:17:50;11.60;99.90
32614;DHT22;19031;51.400;6.770;2023-11-21T11:20:16;11.70;99.90
32614;DHT22;19031;51.400;6.770;2023-11-21T11:26:15;11.80;99.90
32614;DHT22;19031;51.400;6.770;2023-11-21T11:34:57;12.10;99.90
32614;DHT22;19031;51.400;6.770;2023-11-21T11:37:26;12.10;99.90
32614;DHT22;19031;51.400;6.770;2023-11-21T11:39:52;12.10;99.90
32614;DHT22;19031;51.400;6.770;2023-11-21T11:42:21;12.10;99.90
32614;DHT22;19031;51.400;6.770;2023-11-21T11:44:48;12.00;99.90
32614;DHT22;19031;51.400;6.770;2023-11-21T11:47:19;11.80;99.90
32614;DHT22;19031;51.400;6.770;2023-11-21T11:52:43;11.50;99.90
32614;DHT22;19031;51.400;6.770;2023-11-21T11:55:10;11.40;99.90
32614;DHT22;19031;51.400;6.770;2023-11-21T11:57:37;11.40;99.90
32614;DHT22;19031;51.400;6.770;2023-11-21T12:00:11;11.40;99.90
32614;DHT22;19031;51.400;6.770;2023-11-21T12:02:40;11.40;99.90
32614;DHT22;19031;51.400;6.770;2023-11-21T12:05:10;11.30;99.90
32614;DHT22;19031;51.400;6.770;2023-11-21T12:10:19;11.40;99.90
32614;DHT22;19031;51.400;6.770;2023-11-21T12:12:52;11.50;99.90
32614;DHT22;19031;51.400;6.770;2023-11-21T12:15:19;11.40;99.90
32614;DHT22;19031;51.400;6.770;2023-11-21T12:17:45;11.70;99.90
32614;DHT22;19031;51.400;6.770;2023-11-21T12:20:16;11.80;99.90
32614;DHT22;19031;51.400;6.770;2023-11-21T12:22:47;11.90;99.90
32614;DHT22;19031;51.400;6.770;2023-11-21T12:25:16;12.20;99.90
32614;DHT22;19031;51.400;6.770;2023-11-21T12:27:44;12.40;99.90
32614;DHT22;19031;51.400;6.770;2023-11-21T12:30:12;12.80;99.90
32614;DHT22;19031;51.400;6.770;2023-11-21T12:32:47;12.90;99.90
32614;DHT22;19031;51.400;6.770;2023-11-21T12:35:14;12.90;99.90
32614;DHT22;19031;51.400;6.770;2023-11-21T12:37:41;12.70;99.90
32614;DHT22;19031;51.400;6.770;2023-11-21T12:40:09;12.70;99.90
32614;DHT22;19031;51.400;6.770;2023-11-21T12:42:42;12.40;99.90
32614;DHT22;19031;51.400;6.770;2023-11-21T12:45:19;12.40;99.90
32614;DHT22;19031;51.400;6.770;2023-11-21T12:47:55;12.30;99.90
32614;DHT22;19031;51.400;6.770;2023-11-21T12:50:23;12.10;99.90
32614;DHT22;19031;51.400;6.770;2023-11-21T12:52:52;12.10;99.90
32614;DHT22;19031;51.400;6.770;2023-11-21T12:55:22;12.10;99.90
32614;DHT22;19031;51.400;6.770;2023-11-21T12:57:52;11.90;99.90
32614;DHT22;19031;51.400;6.770;2023-11-21T13:00:22;11.80;99.90
32614;DHT22;19031;51.400;6.770;2023-11-21T13:02:54;11.70;99.90
32614;DHT22;19031;51.400;6.770;2023-11-21T13:07:51;11.60;99.90
32614;DHT22;19031;51.400;6.770;2023-11-21T13:10:21;11.50;99.90
32614;DHT22;19031;51.400;6.770;2023-11-21T13:12:51;11.30;99.90
32614;DHT22;19031;51.400;6.770;2023-11-21T13:15:24;11.20;99.90
32614;DHT22;19031;51.400;6.770;2023-11-21T13:17:50;11.20;99.90
32614;DHT22;19031;51.400;6.770;2023-11-21T13:20:17;11.10;99.90
32614;DHT22;19031;51.400;6.770;2023-11-21T13:22:56;11.00;99.90
32614;DHT22;19031;51.400;6.770;2023-11-21T13:25:29;10.90;99.90
32614;DHT22;19031;51.400;6.770;2023-11-21T13:27:58;10.90;99.90
32614;DHT22;19031;51.400;6.770;2023-11-21T13:30:28;10.80;99.90
32614;DHT22;19031;51.400;6.770;2023-11-21T13:33:02;10.80;99.90
32614;DHT22;19031;51.400;6.770;2023-11-21T13:35:36;10.90;99.90
32614;DHT22;19031;51.400;6.770;2023-11-21T13:38:16;10.70;99.90
32614;DHT22;19031;51.400;6.770;2023-11-21T13:40:57;10.70;99.90
32614;DHT22;19031;51.400;6.770;2023-11-21T13:43:24;10.70;99.90
32614;DHT22;19031;51.400;6.770;2023-11-21T13:45:53;10.80;99.90
32614;DHT22;19031;51.400;6.770;2023-11-21T13:48:41;10.70;99.90
32614;DHT22;19031;51.400;6.770;2023-11-21T13:51:16;10.70;99.90
32614;DHT22;19031;51.400;6.770;2023-11-21T13:53:46;10.70;99.90
32614;DHT22;19031;51.400;6.770;2023-11-21T13:56:15;10.70;99.90
32614;DHT22;19031;51.400;6.770;2023-11-21T13:58:45;10.70;99.90
32614;DHT22;19031;51.400;6.770;2023-11-21T14:01:16;10.70;99.90
32614;DHT22;19031;51.400;6.770;2023-11-21T14:03:58;10.70;99.90
32614;DHT22;19031;51.400;6.770;2023-11-21T14:06:27;10.70;99.90
32614;DHT22;19031;51.400;6.770;2023-11-21T14:09:00;10.70;99.90
32614;DHT22;19031;51.400;6.770;2023-11-21T14:11:31;10.60;99.90
32614;DHT22;19031;51.400;6.770;2023-11-21T14:13:56;10.60;99.90
32614;DHT22;19031;51.400;6.770;2023-11-21T14:16:24;10.60;99.90
32614;DHT22;19031;51.400;6.770;2023-11-21T14:18:50;10.40;99.90
32614;DHT22;19031;51.400;6.770;2023-11-21T14:21:22;10.60;99.90
32614;DHT22;19031;51.400;6.770;2023-11-21T14:23:48;10.50;99.90
32614;DHT22;19031;51.400;6.770;2023-11-21T14:26:14;10.40;99.90
32614;DHT22;19031;51.400;6.770;2023-11-21T14:28:41;10.50;99.90
32614;DHT22;19031;51.400;6.770;2023-11-21T14:31:10;10.40;99.90
32614;DHT22;19031;51.400;6.770;2023-11-21T14:33:39;10.50;99.90
32614;DHT22;19031;51.400;6.770;2023-11-21T14:36:06;10.40;99.90
32614;DHT22;19031;51.400;6.770;2023-11-21T14:38:34;10.30;99.90
32614;DHT22;19031;51.400;6.770;2023-11-21T14:40:59;10.30;99.90
32614;DHT22;19031;51.400;6.770;2023-11-21T14:43:25;10.30;99.90
32614;DHT22;19031;51.400;6.770;2023-11-21T14:45:53;10.40;99.90
32614;DHT22;19031;51.400;6.770;2023-11-21T14:48:21;10.30;99.90
32614;DHT22;19031;51.400;6.770;2023-11-21T14:51:05;10.40;99.90
32614;DHT22;19031;51.400;6.770;2023-11-21T14:53:31;10.30;99.90
32614;DHT22;19031;51.400;6.770;2023-11-21T14:56:22;10.30;99.90
32614;DHT22;19031;51.400;6.770;2023-11-21T14:58:53;10.30;99.90
32614;DHT22;19031;51.400;6.770;2023-11-21T15:01:20;10.30;99.90
32614;DHT22;19031;51.400;6.770;2023-11-21T15:03:56;10.20;99.90
32614;DHT22;19031;51.400;6.770;2023-11-21T15:06:22;10.20;99.90
32614;DHT22;19031;51.400;6.770;2023-11-21T15:08:57;10.20;99.90
32614;DHT22;19031;51.400;6.770;2023-11-21T15:11:43;10.10;99.90
32614;DHT22;19031;51.400;6.770;2023-11-21T15:14:08;10.10;99.90
32614;DHT22;19031;51.400;6.770;2023-11-21T15:16:38;10.10;99.90
32614;DHT22;19031;51.400;6.770;2023-11-21T15:19:07;10.10;99.90
32614;DHT22;19031;51.400;6.770;2023-11-21T15:21:35;10.00;99.90
32614;DHT22;19031;51.400;6.770;2023-11-21T15:24:00;9.90;99.90
32614;DHT22;19031;51.400;6.770;2023-11-21T15:26:26;9.90;99.90
32614;DHT22;19031;51.400;6.770;2023-11-21T15:28:55;9.90;99.90
32614;DHT22;19031;51.400;6.770;2023-11-21T15:31:22;9.90;99.90
32614;DHT22;19031;51.400;6.770;2023-11-21T15:33:51;9.90;99.90
32614;DHT22;19031;51.400;6.770;2023-11-21T15:36:18;9.80;99.90
32614;DHT22;19031;51.400;6.770;2023-11-21T15:38:44;9.80;99.90
32614;DHT22;19031;51.400;6.770;2023-11-21T15:41:10;9.80;99.90
32614;DHT22;19031;51.400;6.770;2023-11-21T15:43:37;9.70;99.90
32614;DHT22;19031;51.400;6.770;2023-11-21T15:46:02;9.80;99.90
32614;DHT22;19031;51.400;6.770;2023-11-21T15:48:34;9.70;99.90
32614;DHT22;19031;51.400;6.770;2023-11-21T15:50:59;9.70;99.90
32614;DHT22;19031;51.400;6.770;2023-11-21T15:53:25;9.70;99.90
32614;DHT22;19031;51.400;6.770;2023-11-21T15:55:50;9.70;99.90
32614;DHT22;19031;51.400;6.770;2023-11-21T15:58:16;9.60;99.90
32614;DHT22;19031;51.400;6.770;2023-11-21T16:00:42;9.60;99.90